IST,Max TemperatureF,Mean TemperatureF,Min TemperatureF,Max Dew PointF,MeanDew PointF,Min DewpointF,Max Humidity, Mean Humidity, Min Humidity, Max Sea Level PressureIn, Mean Sea Level PressureIn, Min Sea Level PressureIn, Max VisibilityMiles, Mean VisibilityMiles, Min VisibilityMiles, Max Wind SpeedMPH, Mean Wind SpeedMPH, Max Gust SpeedMPH,PrecipitationIn, CloudCover, Events, WindDirDegrees
2013-5-1,105,93,81,69,55,46,48,21,12,29.88,29.74,29.54,6,4,2,9,3,,0.00,2,,197
2013-5-2,106,94,82,68,55,45,32,20,13,29.83,29.67,29.48,6,5,2,14,3,,0.00,1,,220
2013-5-3,105,94,84,74,53,39,50,23,9,29.80,29.68,29.48,6,4,2,10,5,,0.00,,,295
2013-5-4,107,94,80,81,51,41,69,21,9,29.80,29.67,29.47,6,5,2,9,2,,0.00,1,,321
2013-5-5,104,92,81,81,68,59,76,40,19,29.83,29.71,29.54,6,4,2,9,4,,0.00,2,Thunderstorm,143
2013-5-6,104,92,81,80,66,55,66,34,19,29.86,29.71,29.51,6,4,2,12,4,,0.00,3,Rain-Thunderstorm,171
2013-5-7,104,92,81,74,66,59,66,36,22,29.86,29.73,29.55,6,4,2,8,4,,0.00,2,,183
2013-5-8,107,96,84,75,65,57,55,33,18,29.86,29.71,29.54,6,4,2,8,3,,0.01,4,Rain-Thunderstorm,175
2013-5-9,107,94,81,66,57,48,45,24,13,29.86,29.72,29.51,6,4,2,16,6,,0.00,3,,317
2013-5-10,109,98,86,67,49,36,43,18,8,29.86,29.73,29.52,6,4,2,13,5,,0.00,1,,331
2013-5-11,113,98,82,64,48,41,39,15,7,29.80,29.64,29.44,6,4,2,13,6,,0.00,3,,322
2013-5-12,105,96,87,61,52,48,31,19,12,29.83,29.72,29.54,5,3,2,14,7,,0.00,4,,5
2013-5-13,107,94,82,62,51,41,45,19,10,29.83,29.66,29.46,6,4,2,12,4,,0.00,3,,17
2013-5-14,106,95,84,70,51,37,51,22,9,29.77,29.63,29.44,6,5,2,12,4,,0.00,6,,342
2013-5-15,105,94,82,74,57,46,57,27,13,29.77,29.64,29.47,6,4,2,7,2,,0.00,5,,91
2013-5-16,106,95,84,68,56,45,39,24,13,29.77,29.67,29.49,6,4,2,14,5,,0.00,4,,261
2013-5-17,104,95,86,71,58,48,47,27,14,29.86,29.74,29.57,6,4,2,13,6,,0.00,5,,296
2013-5-18,108,96,84,66,54,48,34,21,12,29.83,29.71,29.51,6,5,3,9,3,,0.00,3,,343
2013-5-19,102,93,84,69,61,52,48,31,18,29.86,29.74,29.52,6,4,2,13,5,,0.00,5,,252
2013-5-20,106,96,86,64,55,46,38,22,13,29.83,29.69,29.49,6,5,2,14,4,,0.00,4,,309
2013-5-21,107,96,84,67,59,48,40,27,13,29.86,29.73,29.50,6,5,3,17,7,,0.00,,,290
2013-5-22,111,98,86,64,51,39,35,17,8,29.80,29.66,29.47,6,5,2,17,7,,0.00,2,,337
2013-5-23,110,98,86,61,49,41,26,16,10,29.83,29.68,29.47,6,4,2,16,5,,0.00,2,,311
2013-5-24,108,96,85,59,49,41,27,16,10,29.80,29.67,29.47,6,5,3,14,7,,0.00,1,,309
2013-5-25,105,94,84,63,54,46,35,20,14,29.83,29.69,29.49,6,5,2,16,8,,0.00,3,,305
2013-5-26,104,94,85,68,56,45,43,24,13,29.83,29.69,29.50,6,4,2,17,7,,0.00,3,,316
2013-5-27,101,92,82,70,63,57,54,36,22,29.86,29.73,29.59,6,5,2,12,6,,0.00,4,,283
2013-5-28,103,90,78,71,65,59,65,41,22,29.86,29.75,29.55,6,4,2,14,6,,0.00,3,,247
2013-5-29,102,90,79,76,67,61,82,47,25,29.83,29.71,29.50,6,4,2,17,7,,0.20,4,Rain-Thunderstorm,289
2013-5-30,95,84,72,76,70,65,78,54,37,29.80,29.66,29.49,6,3,2,12,5,,0.00,5,Rain-Thunderstorm,249
2013-5-31,102,90,79,75,65,57,74,41,22,29.77,29.65,29.46,6,4,2,14,6,,0.28,5,Rain,281